createdAt,value
2018-11-14T00:01:51.043Z,84.43
2018-11-14T00:04:22.508Z,84.26
2018-11-14T00:06:53.676Z,84.22
2018-11-14T00:09:42.555Z,84.09
2018-11-14T00:12:12.944Z,84.28
2018-11-14T00:14:44.295Z,84.16
2018-11-14T00:17:14.804Z,83.72
2018-11-14T00:19:45.791Z,83.51
2018-11-14T00:22:17.043Z,83.51
2018-11-14T00:24:48.205Z,83.41
2018-11-14T00:27:19.594Z,82.90
2018-11-14T00:29:50.830Z,83.43
2018-11-14T00:32:21.812Z,82.95
2018-11-14T00:34:57.278Z,83.10
2018-11-14T00:37:27.699Z,83.26
2018-11-14T00:39:58.283Z,83.74
2018-11-14T00:42:29.709Z,84.09
2018-11-14T00:45:00.242Z,84.93
2018-11-14T00:47:30.744Z,85.26
2018-11-14T00:50:03.374Z,86.09
2018-11-14T00:52:34.393Z,85.89
2018-11-14T00:57:48.995Z,86.39
2018-11-14T01:00:21.572Z,86.40
2018-11-14T01:02:52.750Z,86.55
2018-11-14T01:05:23.662Z,86.67
2018-11-14T01:07:55.965Z,86.90
2018-11-14T01:10:26.460Z,86.80
2018-11-14T01:12:57.227Z,86.81
2018-11-14T01:15:28.424Z,85.92
2018-11-14T01:17:58.983Z,86.06
2018-11-14T01:20:29.759Z,85.52
2018-11-14T01:23:00.957Z,85.18
2018-11-14T01:25:32.197Z,85.14
2018-11-14T01:28:02.961Z,85.44
2018-11-14T01:30:33.462Z,85.79
2018-11-14T01:33:03.964Z,85.47
2018-11-14T01:35:34.425Z,85.29
2018-11-14T01:38:05.627Z,85.38
2018-11-14T01:43:12.347Z,84.62
2018-11-14T01:45:42.755Z,84.31
2018-11-14T01:48:13.165Z,84.91
2018-11-14T01:50:44.118Z,84.98
2018-11-14T01:53:14.740Z,84.47
2018-11-14T01:55:46.066Z,84.61
2018-11-14T01:58:17.411Z,84.76
2018-11-14T02:00:47.838Z,84.40
2018-11-14T02:03:18.330Z,84.28
2018-11-14T02:05:49.765Z,84.72
2018-11-14T02:08:20.334Z,84.86
2018-11-14T02:10:51.156Z,84.61
2018-11-14T02:13:22.436Z,84.20
2018-11-14T02:15:53.128Z,83.78
2018-11-14T02:18:23.630Z,83.52
2018-11-14T02:20:54.311Z,82.70
2018-11-14T02:23:24.873Z,82.08
2018-11-14T02:25:55.294Z,82.64
2018-11-14T02:28:26.004Z,81.50
2018-11-14T02:30:56.940Z,81.60
2018-11-14T02:33:28.004Z,80.93
2018-11-14T02:35:58.570Z,81.85
2018-11-14T02:38:29.564Z,82.27
2018-11-14T02:41:00.014Z,80.67
2018-11-14T02:43:30.744Z,78.90
2018-11-14T02:46:01.645Z,79.48
2018-11-14T02:48:32.380Z,78.85
2018-11-14T02:51:16.801Z,78.88
2018-11-14T02:53:47.259Z,78.31
2018-11-14T02:56:17.529Z,78.25
2018-11-14T02:58:47.817Z,77.93
2018-11-14T03:01:18.399Z,77.97
2018-11-14T03:03:48.856Z,78.03
2018-11-14T03:08:55.753Z,77.21
2018-11-14T03:11:26.680Z,77.29
2018-11-14T03:13:57.674Z,76.79
2018-11-14T03:16:28.118Z,76.60
2018-11-14T03:18:58.864Z,77.37
2018-11-14T03:21:29.145Z,77.16
2018-11-14T03:23:59.758Z,77.18
2018-11-14T03:26:30.246Z,77.70
2018-11-14T03:29:00.933Z,78.24
2018-11-14T03:31:31.926Z,78.50
2018-11-14T03:34:02.637Z,78.86
2018-11-14T03:36:33.179Z,79.15
2018-11-14T03:39:05.549Z,79.28
2018-11-14T03:41:36.388Z,79.65
2018-11-14T03:44:07.375Z,79.37
2018-11-14T03:46:38.005Z,79.80
2018-11-14T03:49:08.652Z,79.77
2018-11-14T03:51:39.422Z,80.27
2018-11-14T03:56:46.414Z,80.54
2018-11-14T03:59:17.763Z,80.45
2018-11-14T04:04:24.554Z,80.90
2018-11-14T04:06:55.140Z,81.66
2018-11-14T04:09:25.948Z,81.23
2018-11-14T04:11:56.226Z,81.04
2018-11-14T04:14:27.528Z,81.37
2018-11-14T04:16:58.205Z,81.20
2018-11-14T04:19:29.575Z,80.83
2018-11-14T04:21:59.928Z,80.81
2018-11-14T04:24:31.081Z,81.30
2018-11-14T04:27:01.834Z,81.05
2018-11-14T04:29:32.624Z,81.17
2018-11-14T04:32:03.138Z,81.42
2018-11-14T04:34:34.169Z,81.52
2018-11-14T04:37:06.118Z,81.70
2018-11-14T04:39:37.121Z,81.91
2018-11-14T04:42:08.286Z,82.00
2018-11-14T04:44:40.045Z,81.64
2018-11-14T04:47:10.925Z,82.11
2018-11-14T04:49:44.116Z,82.08
2018-11-14T04:52:15.040Z,81.74
2018-11-14T04:54:45.822Z,81.78
2018-11-14T04:57:16.809Z,82.23
2018-11-14T04:59:47.651Z,82.26
2018-11-14T05:02:18.914Z,82.11
2018-11-14T05:04:49.507Z,82.47
2018-11-14T05:07:20.191Z,82.47
2018-11-14T05:09:50.684Z,82.43
2018-11-14T05:12:21.334Z,82.21
2018-11-14T05:14:52.175Z,82.66
2018-11-14T05:17:26.905Z,82.76
2018-11-14T05:22:33.123Z,82.90
2018-11-14T05:25:03.749Z,83.38
2018-11-14T05:27:34.255Z,82.86
2018-11-14T05:30:06.645Z,83.25
2018-11-14T05:35:14.056Z,82.91
2018-11-14T05:37:48.547Z,82.98
2018-11-14T05:40:20.435Z,83.39
2018-11-14T05:42:51.440Z,83.47
2018-11-14T05:45:24.319Z,83.38
2018-11-14T05:47:54.864Z,83.14
2018-11-14T05:50:26.378Z,83.10
2018-11-14T05:52:56.986Z,83.51
2018-11-14T05:55:27.538Z,83.19
2018-11-14T05:57:58.133Z,83.25
2018-11-14T06:00:30.653Z,83.57
2018-11-14T06:03:02.272Z,83.58
2018-11-14T06:05:32.807Z,83.96
2018-11-14T06:08:03.742Z,83.73
2018-11-14T06:10:34.304Z,84.11
2018-11-14T06:13:05.406Z,83.96
2018-11-14T06:15:36.006Z,84.01
2018-11-14T06:18:06.470Z,83.61
2018-11-14T06:20:36.953Z,83.82
2018-11-14T06:23:07.663Z,83.90
2018-11-14T06:28:14.228Z,83.68
2018-11-14T06:30:44.765Z,83.77
2018-11-14T06:33:15.586Z,83.64
2018-11-14T06:35:46.953Z,83.76
2018-11-14T06:38:17.376Z,83.77
2018-11-14T06:40:48.315Z,83.39
2018-11-14T06:43:19.193Z,83.89
2018-11-14T06:45:49.639Z,83.69
2018-11-14T06:48:20.454Z,83.87
2018-11-14T06:50:51.004Z,83.68
2018-11-14T06:53:21.601Z,83.44
2018-11-14T06:55:52.250Z,82.98
2018-11-14T06:58:22.996Z,83.10
2018-11-14T07:00:53.567Z,82.78
2018-11-14T07:03:25.029Z,83.00
2018-11-14T07:05:56.480Z,83.17
2018-11-14T07:08:27.431Z,82.94
2018-11-14T07:10:58.522Z,83.11
2018-11-14T07:13:29.151Z,82.76
2018-11-14T07:15:59.782Z,82.86
2018-11-14T07:18:30.568Z,82.87
2018-11-14T07:21:01.200Z,82.91
2018-11-14T07:23:32.262Z,82.89
2018-11-14T07:26:02.677Z,82.75
2018-11-14T07:28:33.237Z,82.90
2018-11-14T07:31:03.769Z,82.74
2018-11-14T07:33:34.225Z,82.60
2018-11-14T07:36:05.564Z,82.46
2018-11-14T07:38:43.951Z,82.74
2018-11-14T07:41:16.715Z,82.59
2018-11-14T07:43:47.592Z,81.65
2018-11-14T07:46:18.573Z,81.62
2018-11-14T07:48:50.006Z,81.66
2018-11-14T07:51:20.519Z,81.41
2018-11-14T07:53:51.495Z,81.17
2018-11-14T07:56:22.432Z,81.48
2018-11-14T07:58:53.364Z,81.11
2018-11-14T08:01:24.253Z,80.50
2018-11-14T08:03:55.110Z,81.26
2018-11-14T08:06:25.930Z,80.42
2018-11-14T08:08:57.577Z,80.38
2018-11-14T08:11:28.352Z,80.65
2018-11-14T08:13:58.804Z,80.45
2018-11-14T08:16:29.498Z,80.49
2018-11-14T08:19:00.451Z,79.56
2018-11-14T08:21:30.926Z,79.63
2018-11-14T08:24:01.558Z,79.65
2018-11-14T08:26:32.266Z,79.58
2018-11-14T08:29:03.652Z,79.86
2018-11-14T08:31:34.446Z,79.57
2018-11-14T08:34:06.164Z,79.48
2018-11-14T08:36:36.968Z,79.54
2018-11-14T08:39:08.661Z,79.00
2018-11-14T08:41:40.018Z,79.19
2018-11-14T08:44:10.626Z,78.58
2018-11-14T08:46:41.134Z,78.78
2018-11-14T08:49:12.075Z,78.75
2018-11-14T08:51:43.029Z,79.08
2018-11-14T08:54:13.831Z,79.53
2018-11-14T08:56:44.428Z,79.32
2018-11-14T08:59:14.980Z,78.88
2018-11-14T09:01:45.684Z,78.23
2018-11-14T09:04:16.211Z,77.26
2018-11-14T09:06:48.077Z,77.64
2018-11-14T09:09:18.794Z,77.06
2018-11-14T09:11:49.683Z,77.08
2018-11-14T09:14:20.295Z,76.55
2018-11-14T09:16:50.811Z,76.72
2018-11-14T09:21:58.248Z,75.88
2018-11-14T09:24:29.137Z,75.59
2018-11-14T09:27:00.183Z,74.94
2018-11-14T09:29:31.047Z,75.26
2018-11-14T09:32:02.481Z,75.29
2018-11-14T09:34:33.044Z,74.59
2018-11-14T09:37:03.406Z,75.59
2018-11-14T09:39:34.790Z,75.20
2018-11-14T09:42:05.851Z,75.09
2018-11-14T09:44:36.912Z,75.00
2018-11-14T09:47:07.288Z,75.36
2018-11-14T09:49:37.887Z,75.29
2018-11-14T09:52:08.694Z,75.76
2018-11-14T09:54:39.306Z,75.42
2018-11-14T09:57:10.080Z,74.95
2018-11-14T09:59:40.508Z,76.03
2018-11-14T10:02:11.043Z,74.83
2018-11-14T10:04:41.417Z,74.15
2018-11-14T10:07:12.624Z,74.93
2018-11-14T10:09:43.818Z,74.55
2018-11-14T10:12:15.864Z,74.44
2018-11-14T10:14:46.472Z,74.08
2018-11-14T10:17:16.828Z,74.51
2018-11-14T10:19:47.965Z,74.41
2018-11-14T10:22:18.869Z,73.64
2018-11-14T10:24:49.372Z,73.71
2018-11-14T10:27:19.621Z,73.60
2018-11-14T10:29:50.284Z,73.75
2018-11-14T10:32:21.200Z,74.10
2018-11-14T10:34:51.858Z,73.69
2018-11-14T10:37:22.783Z,74.21
2018-11-14T10:39:53.449Z,73.74
2018-11-14T10:42:24.163Z,74.10
2018-11-14T10:47:31.072Z,72.68
2018-11-14T10:50:01.689Z,73.51
2018-11-14T10:52:32.218Z,73.22
2018-11-14T10:55:02.810Z,73.28
2018-11-14T10:57:33.101Z,72.91
2018-11-14T11:00:03.769Z,73.18
2018-11-14T11:02:39.592Z,72.90
2018-11-14T11:05:15.279Z,72.58
2018-11-14T11:07:55.202Z,72.49
2018-11-14T11:10:31.690Z,72.37
2018-11-14T11:13:07.700Z,72.76
2018-11-14T11:15:43.693Z,72.12
2018-11-14T11:18:16.385Z,72.75
2018-11-14T11:20:47.272Z,71.07
2018-11-14T11:23:17.846Z,71.82
2018-11-14T11:25:48.630Z,71.24
2018-11-14T11:28:19.499Z,70.33
2018-11-14T11:30:50.108Z,71.08
2018-11-14T11:33:22.299Z,70.58
2018-11-14T11:35:53.254Z,70.72
2018-11-14T11:38:24.475Z,69.96
2018-11-14T11:40:55.099Z,70.66
2018-11-14T11:43:26.222Z,70.10
2018-11-14T11:45:56.818Z,70.18
2018-11-14T11:48:27.692Z,70.50
2018-11-14T11:50:58.191Z,70.68
2018-11-14T11:53:28.665Z,70.85
2018-11-14T11:55:58.970Z,70.68
2018-11-14T11:58:29.519Z,70.25
2018-11-14T12:01:00.323Z,69.75
2018-11-14T12:03:31.697Z,69.65
2018-11-14T12:06:02.865Z,69.41
2018-11-14T12:08:33.398Z,68.83
2018-11-14T12:11:05.370Z,68.54
2018-11-14T12:13:36.517Z,69.03
2018-11-14T12:16:07.724Z,70.38
2018-11-14T12:18:39.303Z,71.70
2018-11-14T12:21:10.031Z,71.70
2018-11-14T12:23:41.250Z,72.39
2018-11-14T12:28:47.760Z,73.26
2018-11-14T12:31:18.134Z,74.03
2018-11-14T12:33:48.648Z,73.73
2018-11-14T12:36:19.027Z,74.00
2018-11-14T12:38:50.265Z,74.55
2018-11-14T12:41:20.964Z,74.80
2018-11-14T12:43:51.746Z,74.11
2018-11-14T12:46:22.155Z,74.55
2018-11-14T12:48:54.034Z,73.80
2018-11-14T12:51:24.720Z,74.52
2018-11-14T12:53:55.938Z,74.62
2018-11-14T12:56:26.383Z,75.26
2018-11-14T12:58:56.797Z,74.91
2018-11-14T13:01:27.341Z,74.26
2018-11-14T13:03:58.427Z,74.35
2018-11-14T13:06:29.536Z,74.14
2018-11-14T13:09:00.846Z,73.91
2018-11-14T13:11:31.884Z,73.22
2018-11-14T13:14:02.448Z,72.35
2018-11-14T13:16:32.941Z,72.20
2018-11-14T13:19:03.603Z,72.90
2018-11-14T13:21:34.119Z,72.22
2018-11-14T13:24:05.496Z,72.74
2018-11-14T13:26:36.398Z,73.61
2018-11-14T13:29:07.051Z,74.73
2018-11-14T13:31:37.603Z,74.97
2018-11-14T13:34:08.887Z,75.51
2018-11-14T13:36:39.349Z,76.42
2018-11-14T13:39:10.753Z,76.49
2018-11-14T13:41:41.665Z,76.57
2018-11-14T13:44:12.397Z,77.21
2018-11-14T13:46:42.824Z,78.69
2018-11-14T13:49:13.490Z,78.64
2018-11-14T13:51:44.260Z,79.66
2018-11-14T13:54:17.054Z,80.62
2018-11-14T13:56:47.484Z,82.40
2018-11-14T13:59:18.932Z,81.75
2018-11-14T14:01:50.103Z,83.00
2018-11-14T14:04:20.585Z,84.34
2018-11-14T14:06:51.291Z,81.64
2018-11-14T14:13:47.168Z,83.31
2018-11-14T14:16:17.834Z,83.61
2018-11-14T14:18:48.206Z,84.17
2018-11-14T14:21:18.543Z,84.63
2018-11-14T14:23:48.769Z,85.46
2018-11-14T14:26:19.267Z,85.37
2018-11-14T14:28:49.496Z,84.81
2018-11-14T14:31:19.726Z,84.77
2018-11-14T14:33:50.208Z,85.26
2018-11-14T14:36:21.098Z,85.31
2018-11-14T14:38:51.325Z,85.49
2018-11-14T14:41:21.845Z,85.80
2018-11-14T14:43:52.413Z,85.44
2018-11-14T14:46:22.919Z,84.78
2018-11-14T14:48:53.579Z,85.10
2018-11-14T14:51:24.477Z,84.69
2018-11-14T14:53:55.007Z,85.75
2018-11-14T14:56:27.258Z,85.78
2018-11-14T14:58:57.679Z,85.12
2018-11-14T15:01:27.997Z,85.94
2018-11-14T15:03:59.131Z,85.56
2018-11-14T15:06:29.581Z,85.24
2018-11-14T15:09:00.023Z,85.65
2018-11-14T15:11:30.380Z,86.07
2018-11-14T15:14:00.955Z,85.87
2018-11-14T15:16:32.284Z,85.71
2018-11-14T15:19:02.857Z,85.21
2018-11-14T15:21:34.035Z,85.01
2018-11-14T15:24:05.627Z,85.18
2018-11-14T15:26:36.438Z,85.03
2018-11-14T15:29:07.164Z,84.80
2018-11-14T15:31:38.810Z,84.37
2018-11-14T15:34:09.194Z,84.80
2018-11-14T15:36:39.536Z,84.18
2018-11-14T15:41:46.321Z,83.99
2018-11-14T15:44:17.609Z,84.23
2018-11-14T15:46:49.447Z,84.30
2018-11-14T15:49:20.756Z,84.23
2018-11-14T15:51:51.716Z,84.43
2018-11-14T15:54:22.142Z,84.46
2018-11-14T15:56:52.979Z,84.86
2018-11-14T15:59:23.316Z,84.80
2018-11-14T16:01:53.897Z,84.81
2018-11-14T16:04:24.500Z,84.61
2018-11-14T16:06:55.081Z,85.33
2018-11-14T16:09:26.009Z,84.91
2018-11-14T16:11:57.456Z,85.09
2018-11-14T16:14:27.813Z,85.57
2018-11-14T16:16:58.749Z,85.72
2018-11-14T16:19:29.523Z,85.82
2018-11-14T16:22:00.301Z,85.74
2018-11-14T16:24:30.580Z,86.01
2018-11-14T16:27:00.836Z,85.72
2018-11-14T16:29:31.029Z,86.08
2018-11-14T16:32:01.459Z,85.06
2018-11-14T16:34:31.688Z,85.26
2018-11-14T16:37:03.103Z,84.84
2018-11-14T16:39:33.386Z,84.52
2018-11-14T16:42:03.744Z,84.18
2018-11-14T16:44:34.736Z,85.26
2018-11-14T16:47:05.294Z,85.90
2018-11-14T16:49:35.751Z,85.66
2018-11-14T16:52:07.125Z,86.22
2018-11-14T16:54:37.455Z,86.31
2018-11-14T16:57:10.124Z,86.75
2018-11-14T16:59:40.736Z,86.39
2018-11-14T17:04:47.003Z,86.17
2018-11-14T17:07:18.943Z,85.73
2018-11-14T17:09:50.817Z,86.50
2018-11-14T17:12:21.922Z,85.83
2018-11-14T17:14:52.852Z,86.37
2018-11-14T17:17:23.553Z,85.82
2018-11-14T17:19:54.709Z,86.38
2018-11-14T17:22:25.851Z,86.40
2018-11-14T17:24:56.559Z,86.70
2018-11-14T17:27:27.149Z,87.34
2018-11-14T17:29:58.216Z,87.47
2018-11-14T17:32:28.815Z,87.10
2018-11-14T17:34:59.311Z,87.55
2018-11-14T17:37:29.626Z,87.85
2018-11-14T17:39:59.931Z,86.97
2018-11-14T17:42:30.940Z,86.68
2018-11-14T17:45:01.287Z,86.64
2018-11-14T17:47:31.740Z,86.93
2018-11-14T17:50:02.138Z,86.59
2018-11-14T17:52:32.446Z,86.41
2018-11-14T17:55:02.618Z,87.01
2018-11-14T17:57:32.949Z,87.15
2018-11-14T18:00:03.417Z,87.12
2018-11-14T18:02:33.800Z,87.19
2018-11-14T18:05:08.646Z,86.96
2018-11-14T18:07:38.918Z,86.67
2018-11-14T18:10:11.036Z,86.60
2018-11-14T18:12:41.720Z,86.70
2018-11-14T18:15:13.008Z,87.01
2018-11-14T18:17:43.941Z,87.33
2018-11-14T18:20:15.511Z,87.22
2018-11-14T18:22:46.639Z,87.44
2018-11-14T18:25:17.518Z,87.80
2018-11-14T18:27:48.016Z,87.96
2018-11-14T18:30:21.885Z,87.45
2018-11-14T18:32:52.816Z,87.60
2018-11-14T18:35:24.020Z,87.63
2018-11-14T18:37:55.237Z,87.70
2018-11-14T18:40:28.146Z,87.34
2018-11-14T18:42:58.724Z,86.62
2018-11-14T18:45:36.027Z,86.33
2018-11-14T18:48:07.105Z,85.09
2018-11-14T18:50:38.176Z,83.92
2018-11-14T18:53:08.563Z,84.50
2018-11-14T18:55:39.092Z,84.47
2018-11-14T18:58:09.636Z,84.66
2018-11-14T19:00:40.030Z,83.45
2018-11-14T19:03:10.651Z,83.29
2018-11-14T19:05:40.999Z,83.36
2018-11-14T19:08:11.375Z,84.46
2018-11-14T19:10:44.966Z,84.92
2018-11-14T19:13:15.457Z,84.60
2018-11-14T19:15:46.300Z,84.97
2018-11-14T19:18:17.622Z,85.36
2018-11-14T19:20:47.975Z,85.25
2018-11-14T19:23:18.772Z,85.88
2018-11-14T19:25:49.433Z,85.48
2018-11-14T19:28:19.932Z,86.11
2018-11-14T19:30:50.368Z,86.09
2018-11-14T19:33:23.318Z,85.98
2018-11-14T19:35:53.678Z,86.34
2018-11-14T19:38:24.784Z,86.49
2018-11-14T19:40:55.650Z,85.77
2018-11-14T19:43:26.877Z,85.69
2018-11-14T19:45:57.237Z,85.37
2018-11-14T19:48:28.015Z,85.34
2018-11-14T19:50:58.298Z,84.96
2018-11-14T19:53:28.796Z,84.37
2018-11-14T19:55:59.319Z,83.93
2018-11-14T19:58:29.743Z,84.07
2018-11-14T20:01:00.089Z,84.91
2018-11-14T20:03:30.391Z,84.38
2018-11-14T20:06:01.294Z,84.23
2018-11-14T20:08:31.495Z,84.04
2018-11-14T20:11:01.907Z,83.96
2018-11-14T20:13:32.205Z,83.68
2018-11-14T20:16:02.592Z,84.30
2018-11-14T20:18:33.558Z,84.72
2018-11-14T20:21:04.138Z,85.12
2018-11-14T20:23:34.719Z,85.20
2018-11-14T20:26:05.789Z,86.14
2018-11-14T20:28:37.339Z,85.71
2018-11-14T20:31:08.343Z,86.88
2018-11-14T20:33:38.868Z,87.23
2018-11-14T20:36:09.501Z,87.52
2018-11-14T20:38:40.488Z,87.56
2018-11-14T20:41:10.965Z,86.60
2018-11-14T20:43:41.652Z,86.44
2018-11-14T20:46:13.122Z,85.59
2018-11-14T20:48:44.311Z,84.95
2018-11-14T20:51:16.008Z,85.26
2018-11-14T20:53:46.574Z,84.52
2018-11-14T20:56:16.974Z,84.21
2018-11-14T20:58:48.006Z,84.47
2018-11-14T21:01:18.423Z,84.30
2018-11-14T21:03:48.995Z,84.04
2018-11-14T21:06:19.663Z,84.23
2018-11-14T21:08:50.046Z,84.29
2018-11-14T21:11:20.443Z,84.80
2018-11-14T21:13:50.721Z,84.53
2018-11-14T21:16:21.018Z,84.78
2018-11-14T21:18:51.667Z,84.37
2018-11-14T21:21:21.994Z,84.63
2018-11-14T21:23:54.143Z,84.25
2018-11-14T21:26:24.561Z,83.93
2018-11-14T21:28:55.097Z,84.30
2018-11-14T21:31:25.960Z,83.83
2018-11-14T21:33:57.101Z,83.96
2018-11-14T21:36:27.458Z,83.94
2018-11-14T21:38:57.863Z,83.86
2018-11-14T21:41:32.044Z,84.20
2018-11-14T21:44:03.313Z,83.99
2018-11-14T21:46:34.493Z,83.88
2018-11-14T21:49:10.418Z,83.40
2018-11-14T21:51:40.905Z,83.17
2018-11-14T21:56:48.425Z,83.27
2018-11-14T21:59:18.922Z,83.57
2018-11-14T22:01:49.317Z,83.74
2018-11-14T22:04:20.542Z,83.51
2018-11-14T22:06:50.988Z,84.00
2018-11-14T22:09:21.613Z,83.68
2018-11-14T22:11:52.686Z,83.85
2018-11-14T22:14:23.372Z,83.57
2018-11-14T22:16:54.094Z,83.57
2018-11-14T22:19:24.636Z,83.47
2018-11-14T22:21:54.839Z,83.46
2018-11-14T22:24:26.673Z,82.99
2018-11-14T22:26:57.346Z,82.98
2018-11-14T22:29:29.108Z,83.22
2018-11-14T22:31:59.747Z,84.08
2018-11-14T22:34:31.494Z,83.60
2018-11-14T22:37:01.757Z,83.18
2018-11-14T22:39:32.366Z,83.65
2018-11-14T22:42:02.955Z,83.62
2018-11-14T22:44:33.701Z,83.64
2018-11-14T22:47:04.040Z,83.21
2018-11-14T22:49:34.726Z,83.31
2018-11-14T22:52:05.157Z,83.27
2018-11-14T22:54:35.833Z,83.46
2018-11-14T22:57:06.250Z,83.79
2018-11-14T22:59:36.577Z,83.37
2018-11-14T23:02:07.376Z,83.20
2018-11-14T23:04:37.758Z,83.37
2018-11-14T23:07:09.403Z,83.86
2018-11-14T23:09:40.744Z,83.94
2018-11-14T23:12:11.186Z,84.34
2018-11-14T23:14:41.568Z,84.67
2018-11-14T23:17:12.039Z,84.39
2018-11-14T23:22:18.910Z,84.26
2018-11-14T23:24:49.235Z,84.54
2018-11-14T23:27:19.753Z,84.52
2018-11-14T23:29:50.543Z,84.48
2018-11-14T23:32:21.034Z,84.32
2018-11-14T23:35:28.153Z,84.40
2018-11-14T23:37:59.768Z,83.98
2018-11-14T23:40:30.841Z,84.86
2018-11-14T23:43:02.543Z,84.92
2018-11-14T23:45:33.725Z,85.07
2018-11-14T23:48:04.102Z,84.89
2018-11-14T23:50:34.426Z,85.07
2018-11-14T23:53:06.550Z,84.96
2018-11-14T23:55:37.514Z,84.42
2018-11-14T23:58:08.072Z,84.34
